Time;durP1;ratioP1;P1;durP2;ratioP2;P2;SDS_P1;SDS_P2;PMS_P1;PMS_P2;Temp;Humidity;BMP_temperature;BMP_pressure;BME280_temperature;BME280_humidity;BME280_pressure;Samples;Min_cycle;Max_cycle;Signal;HPM_P1;HPM_P2
2021/12/01 00:02:21;;;;;;;0.70;0.50;;;;;;;;;;5037693;28;20473;-45
2021/12/01 00:04:46;;;;;;;0.68;0.50;;;;;;;;;;5034956;28;20085;-43
2021/12/01 00:07:12;;;;;;;0.85;0.65;;;;;;;;;;5036689;28;20147;-43
2021/12/01 00:09:37;;;;;;;0.50;0.32;;;;;;;;;;5035877;28;20033;-44
2021/12/01 00:12:03;;;;;;;1.00;0.70;;;;;;;;;;5039178;28;20052;-44
2021/12/01 00:14:28;;;;;;;0.73;0.50;;;;;;;;;;5029560;28;20370;-43
2021/12/01 00:16:53;;;;;;;0.75;0.63;;;;;;;;;;5035546;28;20067;-43
2021/12/01 00:19:18;;;;;;;0.93;0.77;;;;;;;;;;5035211;28;20041;-43
2021/12/01 00:21:44;;;;;;;1.35;0.77;;;;;;;;;;5033722;28;20477;-45
2021/12/01 00:24:09;;;;;;;3.83;1.00;;;;;;;;;;5032976;28;20057;-45
2021/12/01 00:26:34;;;;;;;1.95;1.15;;;;;;;;;;5033428;28;20129;-43
2021/12/01 00:29:00;;;;;;;2.45;1.80;;;;;;;;;;5036220;28;20037;-43
2021/12/01 00:31:25;;;;;;;1.83;1.48;;;;;;;;;;5034742;28;20025;-43
2021/12/01 00:33:51;;;;;;;4.40;1.88;;;;;;;;;;5037183;28;20554;-44
2021/12/01 00:36:17;;;;;;;5.22;1.63;;;;;;;;;;5029661;28;20477;-43
2021/12/01 00:38:43;;;;;;;2.60;1.50;;;;;;;;;;5037152;28;20078;-43
2021/12/01 00:41:12;;;;;;;4.78;2.13;;;;;;;;;;5032701;28;20033;-43
2021/12/01 00:43:39;;;;;;;3.03;1.45;;;;;;;;;;5025423;28;20778;-43
2021/12/01 00:46:20;;;;;;;3.80;1.40;;;;;;;;;;5017904;28;20034;-43
2021/12/01 00:48:45;;;;;;;4.70;1.45;;;;;;;;;;5039096;28;20082;-48
2021/12/01 00:51:11;;;;;;;4.55;1.70;;;;;;;;;;5032715;28;20041;-46
2021/12/01 00:53:37;;;;;;;2.53;1.10;;;;;;;;;;5038631;28;20033;-44
2021/12/01 00:56:02;;;;;;;3.85;1.15;;;;;;;;;;5039931;28;20045;-44
2021/12/01 00:58:27;;;;;;;1.80;1.20;;;;;;;;;;4338681;28;10000159;-43
2021/12/01 01:00:54;;;;;;;1.92;1.35;;;;;;;;;;5036774;28;20037;-45
2021/12/01 01:03:20;;;;;;;7.03;1.98;;;;;;;;;;5034446;28;20044;-43
2021/12/01 01:05:45;;;;;;;3.08;1.15;;;;;;;;;;5037560;28;20029;-44
2021/12/01 01:08:10;;;;;;;2.17;1.10;;;;;;;;;;5042254;28;20041;-45
2021/12/01 01:18:34;;;;;;;1.80;0.88;;;;;;;;;;5032710;28;20080;-43
2021/12/01 01:20:59;;;;;;;6.00;0.80;;;;;;;;;;5035457;28;20045;-45
2021/12/01 01:23:26;;;;;;;2.20;0.90;;;;;;;;;;5037503;28;20060;-44
2021/12/01 01:25:52;;;;;;;2.33;1.20;;;;;;;;;;5035462;28;20108;-44
2021/12/01 01:28:17;;;;;;;5.63;0.90;;;;;;;;;;5029890;28;20124;-43
2021/12/01 01:30:42;;;;;;;2.22;0.80;;;;;;;;;;5041330;28;20791;-43
2021/12/01 01:33:07;;;;;;;3.08;1.05;;;;;;;;;;5041824;28;20128;-44
2021/12/01 01:35:33;;;;;;;3.00;0.70;;;;;;;;;;5040617;28;20056;-45
2021/12/01 01:37:58;;;;;;;1.50;1.00;;;;;;;;;;5037313;28;20133;-45
2021/12/01 01:40:24;;;;;;;2.05;1.08;;;;;;;;;;5035775;28;20040;-44
2021/12/01 01:42:49;;;;;;;3.13;1.75;;;;;;;;;;5043762;28;20409;-46
2021/12/01 01:45:15;;;;;;;3.25;0.90;;;;;;;;;;5040096;28;20040;-46
2021/12/01 01:47:58;;;;;;;2.33;1.10;;;;;;;;;;5038897;28;20049;-45
2021/12/01 01:50:35;;;;;;;2.08;1.10;;;;;;;;;;5034244;28;20048;-44
2021/12/01 01:53:02;;;;;;;2.15;1.05;;;;;;;;;;5036808;28;20044;-46
2021/12/01 01:55:27;;;;;;;2.53;1.40;;;;;;;;;;5033797;28;20056;-43
2021/12/01 01:57:52;;;;;;;3.38;1.48;;;;;;;;;;5042316;28;20052;-42
2021/12/01 02:00:18;;;;;;;2.22;1.10;;;;;;;;;;5035068;28;20034;-44
2021/12/01 02:02:45;;;;;;;3.55;1.20;;;;;;;;;;5037385;28;20041;-42
2021/12/01 02:05:10;;;;;;;3.70;1.20;;;;;;;;;;5042657;28;20037;-41
2021/12/01 02:07:35;;;;;;;2.75;1.40;;;;;;;;;;5040501;28;20511;-42
2021/12/01 02:10:01;;;;;;;1.80;1.50;;;;;;;;;;5033227;28;20037;-41
2021/12/01 02:12:26;;;;;;;2.03;1.42;;;;;;;;;;5040396;28;20052;-45
2021/12/01 02:14:51;;;;;;;3.80;1.55;;;;;;;;;;5043285;28;20029;-43
2021/12/01 02:17:16;;;;;;;3.83;1.60;;;;;;;;;;5039943;28;20068;-43
2021/12/01 02:19:42;;;;;;;5.35;1.60;;;;;;;;;;5041830;28;20036;-42
2021/12/01 02:22:07;;;;;;;2.47;1.20;;;;;;;;;;5035862;28;20108;-42
2021/12/01 02:24:32;;;;;;;2.78;1.30;;;;;;;;;;5041469;28;20033;-43
2021/12/01 02:26:57;;;;;;;3.55;1.50;;;;;;;;;;5039821;28;20049;-42
2021/12/01 02:29:24;;;;;;;1.58;1.25;;;;;;;;;;5041030;28;20033;-42
2021/12/01 02:31:50;;;;;;;2.97;1.10;;;;;;;;;;5038805;28;20477;-42
2021/12/01 02:34:18;;;;;;;3.38;1.65;;;;;;;;;;5040759;28;20052;-43
2021/12/01 02:36:48;;;;;;;3.10;1.00;;;;;;;;;;5040475;28;20120;-41
2021/12/01 02:39:16;;;;;;;4.07;1.30;;;;;;;;;;5036955;28;20029;-42
2021/12/01 02:41:42;;;;;;;1.45;1.13;;;;;;;;;;5043015;28;20048;-42
2021/12/01 02:44:07;;;;;;;1.67;1.35;;;;;;;;;;5020284;28;20030;-42
2021/12/01 02:46:34;;;;;;;2.20;1.95;;;;;;;;;;5039923;28;20037;-43
2021/12/01 02:48:59;;;;;;;1.83;1.45;;;;;;;;;;5028763;28;20045;-41
2021/12/01 02:51:28;;;;;;;4.32;1.40;;;;;;;;;;5038062;28;20049;-41
2021/12/01 02:53:53;;;;;;;5.13;1.45;;;;;;;;;;5036249;28;20051;-43
2021/12/01 02:56:21;;;;;;;3.75;1.50;;;;;;;;;;5038837;28;20505;-42
2021/12/01 02:58:46;;;;;;;3.20;1.08;;;;;;;;;;5031202;28;20529;-43
2021/12/01 03:01:15;;;;;;;1.50;0.90;;;;;;;;;;5043362;28;20041;-46
2021/12/01 03:03:40;;;;;;;2.28;1.02;;;;;;;;;;5041468;28;20159;-46
2021/12/01 03:06:06;;;;;;;2.72;0.90;;;;;;;;;;5036772;28;20110;-43
2021/12/01 03:08:31;;;;;;;1.30;0.85;;;;;;;;;;5044911;28;20032;-44
2021/12/01 03:10:57;;;;;;;1.13;0.73;;;;;;;;;;5038582;28;20044;-43
2021/12/01 03:13:23;;;;;;;0.93;0.75;;;;;;;;;;5035059;28;20030;-42
2021/12/01 03:15:48;;;;;;;2.40;0.90;;;;;;;;;;5040685;28;20032;-43
2021/12/01 03:18:14;;;;;;;3.35;0.95;;;;;;;;;;5040937;28;20037;-43
2021/12/01 03:20:40;;;;;;;1.27;1.08;;;;;;;;;;5037869;28;20090;-42
2021/12/01 03:23:06;;;;;;;1.65;0.60;;;;;;;;;;5039812;28;20167;-43
2021/12/01 03:25:31;;;;;;;1.10;1.00;;;;;;;;;;5043321;28;20166;-42
2021/12/01 03:27:57;;;;;;;2.38;0.70;;;;;;;;;;5040187;28;20050;-42
2021/12/01 03:30:22;;;;;;;0.55;0.40;;;;;;;;;;5037939;28;20072;-42
2021/12/01 03:32:48;;;;;;;1.45;0.32;;;;;;;;;;5036568;28;20033;-41
2021/12/01 03:35:14;;;;;;;0.90;0.38;;;;;;;;;;5041068;28;20041;-42
2021/12/01 03:37:41;;;;;;;0.40;0.40;;;;;;;;;;5038535;28;20033;-42
2021/12/01 03:40:07;;;;;;;2.47;0.40;;;;;;;;;;5038484;28;20051;-42
2021/12/01 03:42:33;;;;;;;0.52;0.38;;;;;;;;;;5037264;28;20513;-42
2021/12/01 03:44:58;;;;;;;0.40;0.40;;;;;;;;;;5036935;28;20049;-42
2021/12/01 03:47:24;;;;;;;2.38;0.32;;;;;;;;;;5037950;28;20059;-42
2021/12/01 03:49:49;;;;;;;0.20;0.20;;;;;;;;;;5034707;28;20084;-42
2021/12/01 03:52:17;;;;;;;0.73;0.30;;;;;;;;;;5037444;28;20045;-42
2021/12/01 03:54:45;;;;;;;0.20;0.20;;;;;;;;;;5036621;28;20044;-42
2021/12/01 03:57:11;;;;;;;0.32;0.20;;;;;;;;;;5035409;28;20033;-41
2021/12/01 03:59:36;;;;;;;1.85;0.20;;;;;;;;;;5039872;28;20029;-43
2021/12/01 04:02:02;;;;;;;0.20;0.20;;;;;;;;;;5028390;28;20045;-42
2021/12/01 04:04:27;;;;;;;0.30;0.30;;;;;;;;;;5041396;28;20029;-41
2021/12/01 04:06:52;;;;;;;0.85;0.25;;;;;;;;;;5039741;28;20037;-42
2021/12/01 04:09:18;;;;;;;0.20;0.20;;;;;;;;;;5041995;28;20029;-41
2021/12/01 04:11:43;;;;;;;1.13;0.40;;;;;;;;;;5038368;28;20032;-42
2021/12/01 04:14:08;;;;;;;0.98;0.20;;;;;;;;;;5041654;28;20186;-42
2021/12/01 04:16:34;;;;;;;0.30;0.20;;;;;;;;;;5031305;28;20029;-41
2021/12/01 04:18:59;;;;;;;0.30;0.30;;;;;;;;;;5038985;28;20037;-42
2021/12/01 04:21:26;;;;;;;0.10;0.10;;;;;;;;;;5039879;28;20083;-44
2021/12/01 04:23:52;;;;;;;0.28;0.28;;;;;;;;;;5033385;28;20044;-42
2021/12/01 04:26:21;;;;;;;0.43;0.43;;;;;;;;;;5033430;28;20053;-42
2021/12/01 04:28:46;;;;;;;0.40;0.30;;;;;;;;;;5033970;28;20045;-42
2021/12/01 04:31:12;;;;;;;0.30;0.20;;;;;;;;;;5036821;28;20577;-42
2021/12/01 04:33:37;;;;;;;0.38;0.35;;;;;;;;;;5040786;28;20043;-41
2021/12/01 04:36:02;;;;;;;3.22;0.40;;;;;;;;;;5032721;28;20038;-42
2021/12/01 04:38:28;;;;;;;0.40;0.35;;;;;;;;;;5027959;28;20378;-42
2021/12/01 04:40:53;;;;;;;0.65;0.32;;;;;;;;;;5031219;28;20067;-41
2021/12/01 04:43:18;;;;;;;0.75;0.40;;;;;;;;;;5036419;28;20044;-41
2021/12/01 04:45:45;;;;;;;0.77;0.40;;;;;;;;;;5033626;28;20030;-42
2021/12/01 04:48:10;;;;;;;0.30;0.30;;;;;;;;;;5023338;28;20052;-42
2021/12/01 04:50:36;;;;;;;0.40;0.30;;;;;;;;;;5038586;28;20036;-43
2021/12/01 04:53:01;;;;;;;1.17;0.50;;;;;;;;;;5037741;28;20048;-42
2021/12/01 04:55:27;;;;;;;0.45;0.35;;;;;;;;;;5031445;28;20049;-41
2021/12/01 04:57:52;;;;;;;0.90;0.43;;;;;;;;;;5035736;28;20041;-41
2021/12/01 05:00:20;;;;;;;0.35;0.28;;;;;;;;;;5033862;28;20045;-42
2021/12/01 05:02:46;;;;;;;0.30;0.30;;;;;;;;;;5037621;28;20041;-44
2021/12/01 05:05:11;;;;;;;1.45;0.30;;;;;;;;;;5036318;28;20041;-42
2021/12/01 05:07:36;;;;;;;0.50;0.28;;;;;;;;;;5038080;28;20048;-45
2021/12/01 05:10:02;;;;;;;2.55;0.30;;;;;;;;;;5018719;28;20119;-44
2021/12/01 05:12:27;;;;;;;0.20;0.20;;;;;;;;;;5036237;28;20048;-43
2021/12/01 05:14:53;;;;;;;1.98;0.30;;;;;;;;;;5033175;28;20052;-41
2021/12/01 05:17:20;;;;;;;0.25;0.20;;;;;;;;;;5039649;28;20578;-42
2021/12/01 05:19:45;;;;;;;0.85;0.30;;;;;;;;;;5034475;28;20086;-42
2021/12/01 05:22:11;;;;;;;0.10;0.10;;;;;;;;;;5039010;28;20124;-44
2021/12/01 05:24:36;;;;;;;0.28;0.28;;;;;;;;;;5038090;28;20036;-42
2021/12/01 05:27:02;;;;;;;0.55;0.30;;;;;;;;;;5040854;28;20049;-41
2021/12/01 05:29:27;;;;;;;0.22;0.20;;;;;;;;;;5038819;28;20523;-43
2021/12/01 05:31:53;;;;;;;0.38;0.38;;;;;;;;;;5034846;28;20052;-42
2021/12/01 05:34:18;;;;;;;0.52;0.40;;;;;;;;;;5039018;28;20878;-41
2021/12/01 05:36:44;;;;;;;0.30;0.30;;;;;;;;;;5033679;28;20033;-43
2021/12/01 05:39:09;;;;;;;0.57;0.30;;;;;;;;;;5038192;28;20504;-43
2021/12/01 05:41:34;;;;;;;0.82;0.40;;;;;;;;;;5039007;28;20472;-41
2021/12/01 05:44:00;;;;;;;0.32;0.32;;;;;;;;;;5036800;28;20378;-42
2021/12/01 05:46:27;;;;;;;0.63;0.30;;;;;;;;;;5023507;28;20051;-41
2021/12/01 05:48:52;;;;;;;0.35;0.28;;;;;;;;;;5038009;28;20033;-45
2021/12/01 05:51:18;;;;;;;0.73;0.40;;;;;;;;;;5041497;28;20064;-41
2021/12/01 05:53:44;;;;;;;0.22;0.22;;;;;;;;;;5036156;28;20682;-41
2021/12/01 05:56:09;;;;;;;0.80;0.43;;;;;;;;;;5044431;28;20122;-41
2021/12/01 05:58:34;;;;;;;1.27;0.40;;;;;;;;;;5035753;28;20033;-42
2021/12/01 06:01:00;;;;;;;0.60;0.60;;;;;;;;;;5031681;28;20041;-42
2021/12/01 06:03:25;;;;;;;0.65;0.65;;;;;;;;;;5037974;28;20029;-44
2021/12/01 06:05:50;;;;;;;0.90;0.30;;;;;;;;;;5045489;28;21015;-42
2021/12/01 06:08:15;;;;;;;0.20;0.20;;;;;;;;;;5038591;28;20033;-42
2021/12/01 06:10:41;;;;;;;0.98;0.43;;;;;;;;;;5038754;28;20033;-42
2021/12/01 06:13:07;;;;;;;0.20;0.20;;;;;;;;;;5042703;28;20041;-43
2021/12/01 06:15:32;;;;;;;1.55;0.45;;;;;;;;;;5038030;28;20049;-42
2021/12/01 06:17:58;;;;;;;0.20;0.20;;;;;;;;;;5038528;28;20034;-42
2021/12/01 06:20:23;;;;;;;0.32;0.20;;;;;;;;;;5038995;28;20302;-43
2021/12/01 06:22:50;;;;;;;0.10;0.10;;;;;;;;;;5041235;28;20029;-42
2021/12/01 06:25:15;;;;;;;0.10;0.10;;;;;;;;;;5034473;28;20042;-42
2021/12/01 06:27:42;;;;;;;0.20;0.20;;;;;;;;;;5040313;28;20559;-42
2021/12/01 06:30:08;;;;;;;0.10;0.10;;;;;;;;;;5037729;28;20041;-42
2021/12/01 06:32:33;;;;;;;0.70;0.20;;;;;;;;;;5043095;28;20831;-43
2021/12/01 06:34:58;;;;;;;0.10;0.10;;;;;;;;;;5044791;28;20166;-42
2021/12/01 06:37:24;;;;;;;0.20;0.15;;;;;;;;;;5043071;28;20064;-41
2021/12/01 06:39:51;;;;;;;2.00;0.77;;;;;;;;;;5026595;28;20496;-41
2021/12/01 06:42:16;;;;;;;0.47;0.10;;;;;;;;;;5038710;28;20048;-45
2021/12/01 06:44:41;;;;;;;0.28;0.28;;;;;;;;;;5035364;28;20026;-41
2021/12/01 06:47:07;;;;;;;0.10;0.10;;;;;;;;;;5037603;28;20045;-41
2021/12/01 06:49:33;;;;;;;0.30;0.20;;;;;;;;;;5021638;28;20120;-41
2021/12/01 06:51:58;;;;;;;0.70;0.10;;;;;;;;;;5038636;28;20048;-41
2021/12/01 06:54:23;;;;;;;1.45;0.17;;;;;;;;;;5037182;28;20055;-41
2021/12/01 06:56:48;;;;;;;0.10;0.10;;;;;;;;;;5037788;28;20025;-44
2021/12/01 06:59:14;;;;;;;0.10;0.10;;;;;;;;;;5025048;28;20576;-41
2021/12/01 07:01:39;;;;;;;0.20;0.20;;;;;;;;;;5010057;28;20488;-41
2021/12/01 07:04:04;;;;;;;0.10;0.10;;;;;;;;;;5032600;28;20040;-42
2021/12/01 07:06:29;;;;;;;0.15;0.15;;;;;;;;;;5029315;28;20047;-40
2021/12/01 07:08:59;;;;;;;0.80;0.80;;;;;;;;;;5031964;28;20144;-40
2021/12/01 07:11:24;;;;;;;0.17;0.17;;;;;;;;;;5034192;28;20028;-41
2021/12/01 07:13:49;;;;;;;0.20;0.20;;;;;;;;;;5033075;28;20037;-42
2021/12/01 07:16:15;;;;;;;0.10;0.10;;;;;;;;;;5034607;28;20677;-41
2021/12/01 07:18:40;;;;;;;0.13;0.13;;;;;;;;;;5035782;28;20056;-44
2021/12/01 07:21:05;;;;;;;0.55;0.30;;;;;;;;;;5034683;28;20519;-41
2021/12/01 07:23:31;;;;;;;0.20;0.10;;;;;;;;;;5036150;28;20484;-41
2021/12/01 07:25:56;;;;;;;0.40;0.20;;;;;;;;;;5035714;28;20132;-41
2021/12/01 07:28:21;;;;;;;0.20;0.20;;;;;;;;;;5040942;28;20047;-43
2021/12/01 07:30:46;;;;;;;0.10;0.10;;;;;;;;;;5035559;28;20120;-42
2021/12/01 07:33:11;;;;;;;1.45;0.20;;;;;;;;;;5034303;28;20043;-42
2021/12/01 07:35:37;;;;;;;0.20;0.10;;;;;;;;;;5031939;28;20075;-42
2021/12/01 07:38:02;;;;;;;0.47;0.20;;;;;;;;;;5031492;28;20032;-43
2021/12/01 07:40:27;;;;;;;1.85;0.30;;;;;;;;;;5038505;28;20021;-42
2021/12/01 07:42:53;;;;;;;0.10;0.10;;;;;;;;;;5034467;28;20038;-41
2021/12/01 07:45:18;;;;;;;0.00;0.00;;;;;;;;;;5034027;28;20104;-42
2021/12/01 07:47:43;;;;;;;1.30;0.20;;;;;;;;;;5036495;28;20158;-42
2021/12/01 07:50:09;;;;;;;0.20;0.20;;;;;;;;;;5037756;28;20086;-43
2021/12/01 07:52:35;;;;;;;0.05;0.05;;;;;;;;;;5037345;28;20389;-42
2021/12/01 07:55:01;;;;;;;0.95;0.40;;;;;;;;;;5034186;28;20057;-42
2021/12/01 07:57:26;;;;;;;0.25;0.25;;;;;;;;;;5030822;28;20135;-43
2021/12/01 07:59:51;;;;;;;1.00;0.30;;;;;;;;;;5027600;28;20045;-41
2021/12/01 08:02:17;;;;;;;1.23;0.47;;;;;;;;;;5028869;28;20033;-41
2021/12/01 08:04:42;;;;;;;1.90;0.40;;;;;;;;;;5033309;28;20079;-41
2021/12/01 08:07:07;;;;;;;3.70;0.47;;;;;;;;;;5030730;28;20037;-42
2021/12/01 08:09:33;;;;;;;0.85;0.57;;;;;;;;;;5033398;28;20037;-44
2021/12/01 08:11:58;;;;;;;0.28;0.20;;;;;;;;;;5036114;28;20034;-43
2021/12/01 08:14:23;;;;;;;0.90;0.35;;;;;;;;;;5034840;28;20041;-42
2021/12/01 08:16:49;;;;;;;5.20;1.10;;;;;;;;;;5032900;28;20029;-43
2021/12/01 08:19:14;;;;;;;1.10;0.55;;;;;;;;;;5038722;28;20046;-42
2021/12/01 08:21:40;;;;;;;0.65;0.43;;;;;;;;;;5036220;28;20040;-41
2021/12/01 08:24:05;;;;;;;0.70;0.70;;;;;;;;;;5036409;28;20037;-42
2021/12/01 08:26:31;;;;;;;1.60;0.70;;;;;;;;;;5037191;28;20048;-42
2021/12/01 08:28:56;;;;;;;0.80;0.60;;;;;;;;;;5039201;28;20571;-42
2021/12/01 08:31:22;;;;;;;0.40;0.30;;;;;;;;;;5038599;28;20029;-42
2021/12/01 08:33:48;;;;;;;1.38;1.20;;;;;;;;;;5021069;28;20047;-44
2021/12/01 08:36:13;;;;;;;2.47;0.50;;;;;;;;;;5021674;28;20043;-41
2021/12/01 08:38:40;;;;;;;1.50;0.55;;;;;;;;;;5038324;28;20044;-42
2021/12/01 08:41:06;;;;;;;0.60;0.60;;;;;;;;;;5031644;28;20038;-42
2021/12/01 08:43:31;;;;;;;1.65;0.85;;;;;;;;;;5037800;28;21140;-42
2021/12/01 08:45:57;;;;;;;1.52;0.43;;;;;;;;;;5039280;28;20549;-42
2021/12/01 08:48:23;;;;;;;0.90;0.50;;;;;;;;;;5034626;28;20033;-42
2021/12/01 08:50:48;;;;;;;2.40;1.17;;;;;;;;;;5032662;28;20049;-42
2021/12/01 08:53:14;;;;;;;6.72;1.35;;;;;;;;;;5031497;28;20045;-43
2021/12/01 08:55:41;;;;;;;3.55;1.60;;;;;;;;;;5011723;28;20171;-43
2021/12/01 08:58:07;;;;;;;1.27;0.77;;;;;;;;;;4330237;28;10001198;-42
2021/12/01 09:00:35;;;;;;;3.47;0.95;;;;;;;;;;5029906;28;20029;-47
2021/12/01 09:03:00;;;;;;;1.77;0.70;;;;;;;;;;5034918;28;20770;-43
2021/12/01 09:05:25;;;;;;;3.17;1.05;;;;;;;;;;5033154;28;20026;-42
2021/12/01 09:07:51;;;;;;;2.67;0.85;;;;;;;;;;5028129;28;20250;-44
2021/12/01 09:10:16;;;;;;;3.13;1.15;;;;;;;;;;5031608;28;20733;-42
2021/12/01 09:12:43;;;;;;;2.17;0.85;;;;;;;;;;5029640;28;20078;-44
2021/12/01 09:15:09;;;;;;;2.15;0.93;;;;;;;;;;4679672;28;10000637;-42
2021/12/01 09:17:34;;;;;;;0.98;0.68;;;;;;;;;;5024678;28;20145;-42
2021/12/01 09:20:02;;;;;;;1.17;0.90;;;;;;;;;;5030548;28;20025;-44
2021/12/01 09:22:27;;;;;;;3.40;1.45;;;;;;;;;;5038759;28;20033;-43
2021/12/01 09:24:52;;;;;;;3.22;1.05;;;;;;;;;;5038219;28;20017;-45
2021/12/01 09:27:18;;;;;;;5.28;1.52;;;;;;;;;;5035186;28;20041;-42
2021/12/01 09:29:43;;;;;;;5.30;1.00;;;;;;;;;;5031660;28;20030;-43
2021/12/01 09:32:10;;;;;;;4.60;1.27;;;;;;;;;;5035928;28;20381;-42
2021/12/01 09:34:35;;;;;;;2.72;1.48;;;;;;;;;;5034140;28;20090;-42
2021/12/01 09:37:00;;;;;;;5.78;1.25;;;;;;;;;;5033210;28;20037;-42
2021/12/01 09:39:26;;;;;;;4.55;1.42;;;;;;;;;;5014659;28;20025;-42
2021/12/01 09:41:51;;;;;;;3.80;1.75;;;;;;;;;;5035933;28;20035;-45
2021/12/01 09:44:17;;;;;;;3.97;1.35;;;;;;;;;;5037889;28;20094;-43
2021/12/01 09:46:42;;;;;;;3.47;1.05;;;;;;;;;;5030780;28;20524;-44
2021/12/01 09:49:08;;;;;;;3.90;1.67;;;;;;;;;;5023515;28;20751;-44
2021/12/01 09:51:33;;;;;;;3.08;1.10;;;;;;;;;;5038974;28;20040;-43
2021/12/01 09:54:00;;;;;;;5.65;1.10;;;;;;;;;;5034862;28;20060;-45
2021/12/01 09:56:26;;;;;;;4.15;1.58;;;;;;;;;;5024631;28;20033;-44
2021/12/01 09:58:51;;;;;;;2.78;1.02;;;;;;;;;;5039685;28;20059;-44
2021/12/01 10:01:18;;;;;;;1.67;1.17;;;;;;;;;;5037457;28;20048;-43
2021/12/01 10:03:44;;;;;;;2.88;1.23;;;;;;;;;;5030227;28;20026;-44
2021/12/01 10:06:14;;;;;;;3.60;1.50;;;;;;;;;;5024727;28;20501;-43
2021/12/01 10:08:41;;;;;;;2.78;1.38;;;;;;;;;;5036261;28;20040;-45
2021/12/01 10:11:15;;;;;;;2.05;1.20;;;;;;;;;;5035464;28;20082;-45
2021/12/01 10:13:41;;;;;;;4.88;0.98;;;;;;;;;;5035790;28;20347;-44
2021/12/01 10:16:08;;;;;;;5.68;1.25;;;;;;;;;;5033693;28;20056;-43
2021/12/01 10:18:36;;;;;;;3.08;1.50;;;;;;;;;;5029786;28;20029;-42
2021/12/01 10:21:12;;;;;;;4.68;2.33;;;;;;;;;;5030841;28;20045;-43
2021/12/01 10:23:40;;;;;;;7.13;1.40;;;;;;;;;;5031828;28;22299;-44
2021/12/01 10:26:10;;;;;;;3.85;1.50;;;;;;;;;;5038506;28;20037;-44
2021/12/01 10:28:39;;;;;;;1.80;0.77;;;;;;;;;;5033814;28;20124;-45
2021/12/01 10:31:04;;;;;;;4.75;1.35;;;;;;;;;;5037679;28;20164;-43
2021/12/01 10:33:30;;;;;;;3.33;1.20;;;;;;;;;;5030907;28;20116;-42
2021/12/01 10:36:00;;;;;;;1.92;1.10;;;;;;;;;;5033094;28;20063;-43
2021/12/01 10:38:27;;;;;;;5.47;0.85;;;;;;;;;;5015315;28;20045;-44
2021/12/01 10:41:21;;;;;;;0.65;0.65;;;;;;;;;;5038811;28;20615;-43
2021/12/01 10:43:48;;;;;;;2.30;1.02;;;;;;;;;;5014088;28;20079;-42
2021/12/01 10:46:14;;;;;;;1.38;1.27;;;;;;;;;;5033488;28;20094;-44
2021/12/01 10:48:40;;;;;;;1.33;0.70;;;;;;;;;;5033151;28;20566;-45
2021/12/01 10:51:06;;;;;;;2.90;1.55;;;;;;;;;;5031126;28;20029;-43
2021/12/01 10:53:32;;;;;;;1.17;1.05;;;;;;;;;;5032794;28;20532;-42
2021/12/01 10:55:59;;;;;;;1.67;0.50;;;;;;;;;;5010601;28;20037;-44
2021/12/01 10:58:38;;;;;;;4.28;1.58;;;;;;;;;;5017807;28;20129;-45
2021/12/01 11:01:04;;;;;;;2.83;0.80;;;;;;;;;;5031120;28;20069;-42
2021/12/01 11:03:31;;;;;;;1.63;0.70;;;;;;;;;;5020984;28;20029;-45
2021/12/01 11:06:19;;;;;;;1.48;0.80;;;;;;;;;;5015852;28;20043;-43
2021/12/01 11:08:46;;;;;;;1.02;1.00;;;;;;;;;;5032351;28;20073;-44
2021/12/01 11:11:12;;;;;;;1.10;0.50;;;;;;;;;;5036983;28;20051;-43
2021/12/01 11:13:45;;;;;;;1.08;0.68;;;;;;;;;;5024751;28;20405;-44
2021/12/01 11:16:11;;;;;;;4.03;0.77;;;;;;;;;;4323160;28;10000241;-42
2021/12/01 11:18:38;;;;;;;1.48;0.85;;;;;;;;;;5018273;28;20040;-42
2021/12/01 11:21:10;;;;;;;2.35;1.02;;;;;;;;;;5019206;28;20037;-43
2021/12/01 11:23:37;;;;;;;3.58;0.80;;;;;;;;;;5013719;28;20114;-43
2021/12/01 11:26:08;;;;;;;1.10;0.75;;;;;;;;;;5030296;28;20037;-44
2021/12/01 11:28:38;;;;;;;1.52;1.35;;;;;;;;;;5024866;28;20048;-43
2021/12/01 11:31:06;;;;;;;4.13;0.70;;;;;;;;;;5033811;28;20028;-43
2021/12/01 11:33:32;;;;;;;3.92;0.95;;;;;;;;;;5031561;28;20041;-44
2021/12/01 11:36:01;;;;;;;3.88;1.27;;;;;;;;;;5030648;28;20044;-42
2021/12/01 11:38:27;;;;;;;1.95;1.15;;;;;;;;;;5020969;28;20068;-43
2021/12/01 11:40:52;;;;;;;1.35;0.90;;;;;;;;;;5032637;28;20071;-43
2021/12/01 11:43:19;;;;;;;2.30;1.17;;;;;;;;;;5028353;28;20086;-45
2021/12/01 11:45:45;;;;;;;2.35;0.85;;;;;;;;;;5024684;28;20037;-42
2021/12/01 11:48:12;;;;;;;1.20;0.90;;;;;;;;;;5028303;28;20044;-42
2021/12/01 11:50:42;;;;;;;3.08;1.13;;;;;;;;;;5033629;28;20112;-43
2021/12/01 11:53:07;;;;;;;2.00;0.95;;;;;;;;;;5025828;28;20677;-42
2021/12/01 11:55:52;;;;;;;2.65;1.02;;;;;;;;;;5030340;28;20045;-45
2021/12/01 11:58:36;;;;;;;2.65;1.27;;;;;;;;;;5026883;28;20048;-42
2021/12/01 12:01:01;;;;;;;4.60;0.90;;;;;;;;;;5025449;28;20068;-46
2021/12/01 12:03:26;;;;;;;1.25;0.75;;;;;;;;;;5027278;28;20048;-45
2021/12/01 12:06:10;;;;;;;1.02;0.70;;;;;;;;;;5029697;28;20032;-44
2021/12/01 12:08:54;;;;;;;1.60;0.93;;;;;;;;;;5020166;28;20059;-43
2021/12/01 12:11:35;;;;;;;1.20;0.50;;;;;;;;;;5032101;28;20029;-43
2021/12/01 12:14:02;;;;;;;1.55;0.57;;;;;;;;;;5026982;28;20048;-42
2021/12/01 12:16:27;;;;;;;1.27;0.88;;;;;;;;;;5002478;28;20030;-42
2021/12/01 12:18:53;;;;;;;3.05;0.90;;;;;;;;;;5012362;28;20112;-43
2021/12/01 12:21:27;;;;;;;2.13;0.60;;;;;;;;;;5000083;28;20038;-45
2021/12/01 12:24:01;;;;;;;1.25;0.47;;;;;;;;;;5014310;28;20026;-43
2021/12/01 12:26:38;;;;;;;1.73;0.50;;;;;;;;;;5010937;28;20068;-42
2021/12/01 12:29:08;;;;;;;0.65;0.50;;;;;;;;;;5013426;28;20527;-42
2021/12/01 12:31:33;;;;;;;0.70;0.70;;;;;;;;;;5009314;28;20056;-42
2021/12/01 12:34:03;;;;;;;1.17;0.70;;;;;;;;;;4319682;28;10000723;-42
2021/12/01 12:36:39;;;;;;;2.58;0.63;;;;;;;;;;5032506;28;20053;-44
2021/12/01 12:39:07;;;;;;;1.05;0.40;;;;;;;;;;5017789;28;20516;-42
2021/12/01 12:41:53;;;;;;;1.75;1.00;;;;;;;;;;5016051;28;20025;-44
2021/12/01 12:44:27;;;;;;;2.80;1.13;;;;;;;;;;5028320;28;20060;-42
2021/12/01 12:47:02;;;;;;;3.45;1.15;;;;;;;;;;5022773;28;20041;-42
2021/12/01 12:49:37;;;;;;;2.90;0.68;;;;;;;;;;5030539;28;20510;-43
2021/12/01 12:52:21;;;;;;;3.60;1.00;;;;;;;;;;5024954;28;20046;-42
2021/12/01 12:54:46;;;;;;;1.35;0.77;;;;;;;;;;5034994;28;20068;-43
2021/12/01 12:57:13;;;;;;;2.08;0.77;;;;;;;;;;5032575;28;20124;-42
2021/12/01 12:59:39;;;;;;;1.58;0.82;;;;;;;;;;5030574;28;20033;-43
2021/12/01 13:02:07;;;;;;;3.20;0.90;;;;;;;;;;5024788;28;20076;-43
2021/12/01 13:04:48;;;;;;;1.33;1.02;;;;;;;;;;5029012;28;20069;-42
2021/12/01 13:07:32;;;;;;;1.70;0.80;;;;;;;;;;5032086;28;20056;-42
2021/12/01 13:10:20;;;;;;;1.83;1.20;;;;;;;;;;5024092;28;20553;-44
2021/12/01 13:12:49;;;;;;;1.67;0.73;;;;;;;;;;5020158;28;20037;-44
2021/12/01 13:15:37;;;;;;;1.15;0.63;;;;;;;;;;5012373;28;20408;-43
2021/12/01 13:18:04;;;;;;;3.13;0.70;;;;;;;;;;4997961;28;20521;-43
2021/12/01 13:20:30;;;;;;;0.75;0.50;;;;;;;;;;5027182;28;20040;-44
2021/12/01 13:23:22;;;;;;;1.45;0.65;;;;;;;;;;5029789;28;20074;-44
2021/12/01 13:25:55;;;;;;;2.90;0.90;;;;;;;;;;4676139;28;9999620;-46
2021/12/01 13:28:26;;;;;;;1.63;0.68;;;;;;;;;;5032753;28;21581;-43
2021/12/01 13:30:58;;;;;;;5.32;0.98;;;;;;;;;;5036520;28;20025;-42
2021/12/01 13:33:24;;;;;;;2.20;0.85;;;;;;;;;;5032519;28;20493;-46
2021/12/01 13:35:49;;;;;;;1.73;1.00;;;;;;;;;;5040655;28;20036;-45
2021/12/01 13:38:15;;;;;;;0.80;0.47;;;;;;;;;;5030569;28;20233;-42
2021/12/01 13:40:40;;;;;;;2.25;1.17;;;;;;;;;;5034465;28;20057;-42
2021/12/01 13:43:18;;;;;;;0.73;0.73;;;;;;;;;;5030008;28;20124;-44
2021/12/01 13:45:53;;;;;;;2.45;1.40;;;;;;;;;;5040532;28;20872;-44
2021/12/01 13:48:19;;;;;;;1.40;0.63;;;;;;;;;;5028990;28;20045;-42
2021/12/01 13:50:44;;;;;;;3.63;0.80;;;;;;;;;;5035870;28;20033;-42
2021/12/01 13:53:09;;;;;;;1.25;0.60;;;;;;;;;;5030727;28;20099;-43
2021/12/01 13:55:37;;;;;;;0.63;0.57;;;;;;;;;;5041732;28;20089;-43
2021/12/01 13:58:07;;;;;;;1.35;0.55;;;;;;;;;;5032288;28;20522;-43
2021/12/01 14:00:34;;;;;;;1.50;0.80;;;;;;;;;;5032823;28;20113;-42
2021/12/01 14:02:59;;;;;;;1.60;0.70;;;;;;;;;;5034218;28;20144;-43
2021/12/01 14:05:25;;;;;;;2.47;1.00;;;;;;;;;;5044485;28;20298;-43
2021/12/01 14:07:51;;;;;;;2.08;1.00;;;;;;;;;;5034085;28;20104;-43
2021/12/01 14:10:34;;;;;;;0.70;0.52;;;;;;;;;;5013025;28;20559;-45
2021/12/01 14:13:00;;;;;;;1.20;0.90;;;;;;;;;;5034738;28;20064;-43
2021/12/01 14:15:30;;;;;;;1.98;0.80;;;;;;;;;;5039612;28;20040;-43
2021/12/01 14:17:55;;;;;;;2.53;0.70;;;;;;;;;;5033179;28;20657;-43
2021/12/01 14:20:24;;;;;;;2.92;0.88;;;;;;;;;;5035072;28;20056;-44
2021/12/01 14:22:51;;;;;;;1.42;0.55;;;;;;;;;;5017486;28;20036;-44
2021/12/01 14:25:20;;;;;;;0.77;0.45;;;;;;;;;;5033930;28;20025;-43
2021/12/01 14:27:46;;;;;;;3.58;0.80;;;;;;;;;;5030315;28;20044;-41
2021/12/01 14:30:13;;;;;;;0.98;0.73;;;;;;;;;;5036924;28;20171;-44
2021/12/01 14:32:38;;;;;;;2.22;0.80;;;;;;;;;;5032602;28;20492;-44
2021/12/01 14:35:05;;;;;;;2.05;0.65;;;;;;;;;;5036775;28;20060;-44
2021/12/01 14:37:31;;;;;;;3.22;0.80;;;;;;;;;;5037501;28;20072;-43
2021/12/01 14:40:06;;;;;;;2.63;0.50;;;;;;;;;;5035671;28;20135;-43
2021/12/01 14:42:31;;;;;;;0.70;0.70;;;;;;;;;;5032409;28;20732;-44
2021/12/01 14:45:02;;;;;;;0.68;0.55;;;;;;;;;;5034943;28;20032;-43
2021/12/01 14:47:28;;;;;;;1.30;0.52;;;;;;;;;;5028836;28;20037;-44
2021/12/01 14:49:55;;;;;;;0.50;0.50;;;;;;;;;;5030068;28;20044;-44
2021/12/01 14:52:22;;;;;;;3.13;1.38;;;;;;;;;;5025461;28;20755;-43